createdAt,value
2023-07-30T00:00:28.612Z,100482.81
2023-07-30T00:01:30.495Z,100475.75
2023-07-30T00:02:32.225Z,100479.31
2023-07-30T00:03:33.949Z,100488.03
2023-07-30T00:04:35.547Z,100489.75
2023-07-30T00:05:37.472Z,100482.66
2023-07-30T00:06:39.056Z,100485.31
2023-07-30T00:07:40.620Z,100485.22
2023-07-30T00:08:45.251Z,100484.34
2023-07-30T00:09:47.018Z,100479.13
2023-07-30T00:10:48.675Z,100473.84
2023-07-30T00:11:50.357Z,100480.00
2023-07-30T00:12:52.091Z,100482.66
2023-07-30T00:13:53.700Z,100480.84
2023-07-30T00:14:55.278Z,100485.31
2023-07-30T00:15:57.071Z,100480.84
2023-07-30T00:16:58.671Z,100476.41
2023-07-30T00:18:00.298Z,100476.31
2023-07-30T00:19:02.133Z,100467.53
2023-07-30T00:20:04.056Z,100471.19
2023-07-30T00:21:05.698Z,100476.59
2023-07-30T00:22:08.050Z,100474.03
2023-07-30T00:23:09.932Z,100475.81
2023-07-30T00:24:12.057Z,100471.47
2023-07-30T00:25:13.677Z,100473.19
2023-07-30T00:26:15.419Z,100473.19
2023-07-30T00:27:17.243Z,100475.81
2023-07-30T00:28:18.921Z,100479.31
2023-07-30T00:29:20.730Z,100481.88
2023-07-30T00:30:22.978Z,100473.00
2023-07-30T00:31:24.588Z,100476.50
2023-07-30T00:32:26.935Z,100477.28
2023-07-30T00:33:29.322Z,100480.78
2023-07-30T00:34:31.336Z,100476.31
2023-07-30T00:35:33.400Z,100478.97
2023-07-30T00:36:35.044Z,100478.88
2023-07-30T00:37:37.251Z,100485.06
2023-07-30T00:38:38.857Z,100483.25
2023-07-30T00:39:40.442Z,100481.47
2023-07-30T00:40:42.926Z,100485.81
2023-07-30T00:41:44.809Z,100479.56
2023-07-30T00:42:46.847Z,100489.25
2023-07-30T00:43:48.488Z,100479.47
2023-07-30T00:44:50.838Z,100482.03
2023-07-30T00:45:53.082Z,100490.00
2023-07-30T00:46:54.883Z,100482.91
2023-07-30T00:47:57.124Z,100484.69
2023-07-30T00:48:59.366Z,100485.56
2023-07-30T00:50:02.166Z,100485.56
2023-07-30T00:51:04.337Z,100489.91
2023-07-30T00:52:08.898Z,100489.91
2023-07-30T00:53:15.139Z,100482.91
2023-07-30T00:54:17.408Z,100482.03
2023-07-30T00:55:19.686Z,100483.75
2023-07-30T00:56:21.906Z,100481.94
2023-07-30T00:57:24.305Z,100481.03
2023-07-30T00:58:26.352Z,100488.88
2023-07-30T00:59:28.715Z,100482.75
2023-07-30T01:00:31.428Z,100482.66
2023-07-30T01:01:37.848Z,100480.75
2023-07-30T01:02:39.596Z,100478.09
2023-07-30T01:03:42.501Z,100471.03
2023-07-30T01:04:45.097Z,100469.13
2023-07-30T01:05:47.051Z,100464.72
2023-07-30T01:06:48.705Z,100463.00
2023-07-30T01:07:50.334Z,100464.72
2023-07-30T01:08:52.103Z,100466.47
2023-07-30T01:09:53.925Z,100470.94
2023-07-30T01:10:55.859Z,100470.09
2023-07-30T01:12:00.192Z,100471.13
2023-07-30T01:13:04.344Z,100474.69
2023-07-30T01:14:07.010Z,100465.03
2023-07-30T01:15:10.322Z,100478.28
2023-07-30T01:16:13.139Z,100466.94
2023-07-30T01:17:15.186Z,100473.16
2023-07-30T01:18:17.163Z,100476.56
2023-07-30T01:19:18.999Z,100472.13
2023-07-30T01:20:20.606Z,100481.81
2023-07-30T01:21:22.879Z,100482.75
2023-07-30T01:22:25.041Z,100482.75
2023-07-30T01:23:28.064Z,100477.44
2023-07-30T01:24:29.725Z,100467.78
2023-07-30T01:25:37.329Z,100459.06
2023-07-30T01:26:44.511Z,100462.56
2023-07-30T01:27:53.307Z,100463.50
2023-07-30T01:29:02.018Z,100457.34
2023-07-30T01:30:23.024Z,100469.91
2023-07-30T01:31:27.589Z,100465.63
2023-07-30T01:32:30.832Z,100462.97
2023-07-30T01:33:33.477Z,100467.44
2023-07-30T01:34:40.155Z,100461.28
2023-07-30T01:35:43.948Z,100460.31
2023-07-30T01:36:47.088Z,100470.00
2023-07-30T01:37:50.441Z,100473.56
2023-07-30T01:38:53.084Z,100479.75
2023-07-30T01:39:55.309Z,100485.81
2023-07-30T01:40:57.372Z,100491.88
2023-07-30T01:41:59.007Z,100490.97
2023-07-30T01:43:00.683Z,100486.41
2023-07-30T01:44:03.449Z,100486.31
2023-07-30T01:45:06.895Z,100487.09
2023-07-30T01:46:08.551Z,100482.66
2023-07-30T01:47:10.419Z,100486.16
2023-07-30T01:48:12.156Z,100480.84
2023-07-30T01:49:13.753Z,100484.38
2023-07-30T01:50:15.537Z,100486.22
2023-07-30T01:51:17.471Z,100486.31
2023-07-30T01:52:19.061Z,100483.69
2023-07-30T01:53:20.720Z,100485.56
2023-07-30T01:54:23.011Z,100491.72
2023-07-30T01:55:24.660Z,100479.41
2023-07-30T01:56:26.960Z,100488.22
2023-07-30T01:57:28.624Z,100481.13
2023-07-30T01:58:30.224Z,100489.91
2023-07-30T01:59:32.062Z,100482.03
2023-07-30T02:00:33.713Z,100490.00
2023-07-30T02:01:43.132Z,100484.78
2023-07-30T02:02:44.800Z,100488.31
2023-07-30T02:03:47.254Z,100487.44
2023-07-30T02:04:48.981Z,100484.78
2023-07-30T02:05:50.984Z,100477.75
2023-07-30T02:06:53.435Z,100478.63
2023-07-30T02:07:55.052Z,100483.06
2023-07-30T02:08:57.184Z,100474.28
2023-07-30T02:09:58.964Z,100474.38
2023-07-30T02:11:01.042Z,100483.16
2023-07-30T02:12:03.630Z,100480.59
2023-07-30T02:13:05.466Z,100471.81
2023-07-30T02:14:07.365Z,100473.66
2023-07-30T02:15:09.337Z,100478.97
2023-07-30T02:16:12.092Z,100476.31
2023-07-30T02:17:13.699Z,100474.63
2023-07-30T02:18:17.236Z,100472.06
2023-07-30T02:19:19.171Z,100472.06
2023-07-30T02:20:20.751Z,100470.44
2023-07-30T02:21:22.992Z,100465.97
2023-07-30T02:22:24.669Z,100467.78
2023-07-30T02:23:26.801Z,100466.06
2023-07-30T02:24:28.411Z,100474.94
2023-07-30T02:25:30.504Z,100464.44
2023-07-30T02:26:32.227Z,100474.28
2023-07-30T02:27:33.919Z,100473.50
2023-07-30T02:28:35.580Z,100475.31
2023-07-30T02:29:38.097Z,100479.72
2023-07-30T02:30:39.701Z,100471.97
2023-07-30T02:31:42.373Z,100482.56
2023-07-30T02:32:44.100Z,100477.34
2023-07-30T02:33:45.831Z,100481.78
2023-07-30T02:34:48.470Z,100485.38
2023-07-30T02:35:50.110Z,100481.88
2023-07-30T02:36:52.044Z,100484.59
2023-07-30T02:37:53.628Z,100485.53
2023-07-30T02:38:55.254Z,100485.53
2023-07-30T02:39:57.108Z,100489.13
2023-07-30T02:40:58.805Z,100486.47
2023-07-30T02:42:00.484Z,100485.63
2023-07-30T02:43:05.337Z,100491.78
2023-07-30T02:44:07.012Z,100488.19
2023-07-30T02:45:09.070Z,100488.19
2023-07-30T02:46:10.906Z,100484.59
2023-07-30T02:47:13.635Z,100490.75
2023-07-30T02:48:15.215Z,100491.69
2023-07-30T02:49:17.130Z,100491.69
2023-07-30T02:50:21.114Z,100488.19
2023-07-30T02:51:23.327Z,100494.34
2023-07-30T02:52:25.086Z,100495.19
2023-07-30T02:53:27.133Z,100497.81
2023-07-30T02:54:28.809Z,100500.41
2023-07-30T02:55:30.447Z,100503.13
2023-07-30T02:56:35.302Z,100499.53
2023-07-30T02:57:37.144Z,100501.34
2023-07-30T02:58:38.739Z,100503.06
2023-07-30T02:59:41.942Z,100503.06
2023-07-30T03:00:43.651Z,100505.53
2023-07-30T03:01:45.680Z,100502.91
2023-07-30T03:02:48.186Z,100497.50
2023-07-30T03:03:49.948Z,100499.22
2023-07-30T03:04:54.759Z,100500.06
2023-07-30T03:05:58.485Z,100506.22
2023-07-30T03:07:00.149Z,100507.09
2023-07-30T03:08:03.115Z,100507.00
2023-07-30T03:09:04.764Z,100502.53
2023-07-30T03:10:06.973Z,100505.09
2023-07-30T03:11:08.610Z,100505.97
2023-07-30T03:12:10.719Z,100505.09
2023-07-30T03:13:13.050Z,100511.28
2023-07-30T03:14:14.733Z,100510.41
2023-07-30T03:15:16.774Z,100502.47
2023-07-30T03:16:18.561Z,100506.81
2023-07-30T03:17:20.387Z,100502.38
2023-07-30T03:18:22.118Z,100502.38
2023-07-30T03:19:23.735Z,100504.97
2023-07-30T03:20:25.372Z,100504.97
2023-07-30T03:21:27.140Z,100502.31
2023-07-30T03:22:28.734Z,100514.59
2023-07-30T03:23:30.571Z,100520.78
2023-07-30T03:24:32.805Z,100515.38
2023-07-30T03:25:34.539Z,100510.94
2023-07-30T03:26:36.426Z,100514.38
2023-07-30T03:27:38.579Z,100514.38
2023-07-30T03:28:41.225Z,100516.94
2023-07-30T03:29:43.425Z,100520.41
2023-07-30T03:30:45.062Z,100520.41
2023-07-30T03:31:46.824Z,100516.84
2023-07-30T03:32:48.446Z,100517.78
2023-07-30T03:33:50.359Z,100514.19
2023-07-30T03:34:52.144Z,100519.50
2023-07-30T03:35:55.523Z,100518.63
2023-07-30T03:37:01.674Z,100516.94
2023-07-30T03:38:04.340Z,100515.97
2023-07-30T03:39:05.937Z,100519.50
2023-07-30T03:40:08.839Z,100514.19
2023-07-30T03:41:13.317Z,100513.31
2023-07-30T03:42:15.346Z,100516.75
2023-07-30T03:43:17.267Z,100512.47
2023-07-30T03:44:18.994Z,100512.38
2023-07-30T03:45:21.156Z,100514.09
2023-07-30T03:46:23.698Z,100514.09
2023-07-30T03:47:25.426Z,100508.91
2023-07-30T03:48:27.137Z,100513.31
2023-07-30T03:49:28.865Z,100518.72
2023-07-30T03:50:30.507Z,100516.06
2023-07-30T03:51:33.823Z,100521.25
2023-07-30T03:52:37.234Z,100506.34
2023-07-30T03:53:38.873Z,100517.78
2023-07-30T03:54:40.894Z,100518.63
2023-07-30T03:55:43.352Z,100521.25
2023-07-30T03:56:44.990Z,100516.06
2023-07-30T03:57:46.837Z,100524.88
2023-07-30T03:58:48.736Z,100524.00
2023-07-30T03:59:50.339Z,100520.41
2023-07-30T04:00:52.255Z,100521.25
2023-07-30T04:01:54.239Z,100523.88
2023-07-30T04:02:57.754Z,100523.88
2023-07-30T04:03:59.426Z,100519.41
2023-07-30T04:05:01.106Z,100518.47
2023-07-30T04:06:03.447Z,100516.75
2023-07-30T04:07:05.382Z,100518.47
2023-07-30T04:08:07.196Z,100523.69
2023-07-30T04:09:09.187Z,100532.47
2023-07-30T04:10:10.863Z,100532.66
2023-07-30T04:11:13.194Z,100529.16
2023-07-30T04:12:14.784Z,100529.16
2023-07-30T04:13:16.983Z,100517.69
2023-07-30T04:14:18.657Z,100520.34
2023-07-30T04:15:20.282Z,100524.69
2023-07-30T04:16:22.300Z,100522.81
2023-07-30T04:17:23.969Z,100527.25
2023-07-30T04:18:25.682Z,100529.00
2023-07-30T04:19:28.036Z,100527.19
2023-07-30T04:20:29.632Z,100531.53
2023-07-30T04:21:31.483Z,100531.38
2023-07-30T04:22:34.042Z,100526.84
2023-07-30T04:23:35.741Z,100530.97
2023-07-30T04:24:38.414Z,100525.41
2023-07-30T04:25:41.886Z,100528.69
2023-07-30T04:26:43.611Z,100526.78
2023-07-30T04:27:45.352Z,100525.78
2023-07-30T04:28:47.134Z,100522.19
2023-07-30T04:29:49.363Z,100519.44
2023-07-30T04:30:51.914Z,100521.16
2023-07-30T04:31:53.707Z,100519.34
2023-07-30T04:32:56.018Z,100524.66
2023-07-30T04:33:58.351Z,100524.56
2023-07-30T04:35:01.032Z,100524.56
2023-07-30T04:36:03.552Z,100524.56
2023-07-30T04:37:05.875Z,100523.63
2023-07-30T04:38:09.150Z,100530.66
2023-07-30T04:39:10.937Z,100524.47
2023-07-30T04:40:13.344Z,100534.16
2023-07-30T04:41:15.517Z,100533.22
2023-07-30T04:42:22.696Z,100530.56
2023-07-30T04:43:24.366Z,100528.94
2023-07-30T04:44:30.439Z,100531.69
2023-07-30T04:45:38.297Z,100530.81
2023-07-30T04:46:40.038Z,100529.97
2023-07-30T04:47:42.033Z,100531.75
2023-07-30T04:48:45.211Z,100528.16
2023-07-30T04:49:48.537Z,100527.31
2023-07-30T04:50:50.211Z,100536.00
2023-07-30T04:51:54.086Z,100529.03
2023-07-30T04:52:56.128Z,100531.75
2023-07-30T04:53:58.772Z,100540.47
2023-07-30T04:55:00.461Z,100529.78
2023-07-30T04:56:02.134Z,100531.50
2023-07-30T04:57:04.382Z,100535.88
2023-07-30T04:58:06.502Z,100528.75
2023-07-30T04:59:08.607Z,100518.25
2023-07-30T05:00:10.786Z,100528.84
2023-07-30T05:01:13.127Z,100531.41
2023-07-30T05:02:14.777Z,100532.16
2023-07-30T05:03:17.192Z,100529.50
2023-07-30T05:04:18.882Z,100536.44
2023-07-30T05:05:21.054Z,100538.16
2023-07-30T05:06:24.114Z,100543.28
2023-07-30T05:07:25.756Z,100527.38
2023-07-30T05:08:28.068Z,100528.06
2023-07-30T05:09:29.684Z,100535.94
2023-07-30T05:10:31.452Z,100537.56
2023-07-30T05:11:33.546Z,100533.00
2023-07-30T05:12:35.272Z,100533.00
2023-07-30T05:13:37.489Z,100539.09
2023-07-30T05:14:39.157Z,100534.63
2023-07-30T05:15:40.796Z,100534.53
2023-07-30T05:16:43.196Z,100531.97
2023-07-30T05:17:44.868Z,100535.41
2023-07-30T05:18:47.135Z,100541.38
2023-07-30T05:19:48.760Z,100527.94
2023-07-30T05:20:50.497Z,100534.09
2023-07-30T05:21:54.524Z,100529.56
2023-07-30T05:22:57.546Z,100541.59
2023-07-30T05:23:59.202Z,100529.88
2023-07-30T05:25:00.769Z,100535.78
2023-07-30T05:26:03.209Z,100531.16
2023-07-30T05:27:05.211Z,100529.94
2023-07-30T05:28:08.385Z,100537.72
2023-07-30T05:29:10.173Z,100528.81
2023-07-30T05:30:12.176Z,100540.19
2023-07-30T05:31:13.956Z,100529.38
2023-07-30T05:32:15.664Z,100537.16
2023-07-30T05:33:18.029Z,100536.22
2023-07-30T05:34:19.728Z,100531.59
2023-07-30T05:35:21.814Z,100527.50
2023-07-30T05:36:23.445Z,100533.75
2023-07-30T05:37:25.105Z,100527.59
2023-07-30T05:38:27.034Z,100535.47
2023-07-30T05:39:28.745Z,100528.44
2023-07-30T05:40:30.364Z,100538.88
2023-07-30T05:41:32.068Z,100534.44
2023-07-30T05:42:33.856Z,100533.38
2023-07-30T05:43:35.463Z,100534.81
2023-07-30T05:44:37.067Z,100530.84
2023-07-30T05:45:38.757Z,100528.03
2023-07-30T05:46:40.506Z,100524.06
2023-07-30T05:47:43.005Z,100530.81
2023-07-30T05:48:44.839Z,100527.03
2023-07-30T05:49:46.803Z,100527.50
2023-07-30T05:50:48.527Z,100519.34
2023-07-30T05:51:50.207Z,100524.25
2023-07-30T05:52:52.089Z,100521.25
2023-07-30T05:53:57.041Z,100524.53
2023-07-30T05:54:58.708Z,100527.69
2023-07-30T05:56:00.448Z,100526.34
2023-07-30T05:57:02.229Z,100525.03
2023-07-30T05:58:03.853Z,100521.22
2023-07-30T05:59:05.593Z,100523.59
2023-07-30T06:00:08.291Z,100520.72
2023-07-30T06:01:15.956Z,100524.06
2023-07-30T06:02:19.106Z,100526.63
2023-07-30T06:03:22.344Z,100522.03
2023-07-30T06:04:24.004Z,100525.25
2023-07-30T06:05:25.663Z,100520.63
2023-07-30T06:06:30.409Z,100523.63
2023-07-30T06:07:32.477Z,100519.66
2023-07-30T06:08:34.626Z,100519.03
2023-07-30T06:09:37.125Z,100518.75
2023-07-30T06:10:39.662Z,100524.91
2023-07-30T06:11:41.559Z,100517.97
2023-07-30T06:12:43.595Z,100517.53
2023-07-30T06:13:45.276Z,100511.56
2023-07-30T06:14:46.927Z,100528.00
2023-07-30T06:15:48.716Z,100522.16
2023-07-30T06:16:53.444Z,100523.56
2023-07-30T06:17:55.164Z,100515.19
2023-07-30T06:18:57.192Z,100524.16
2023-07-30T06:19:58.816Z,100516.41
2023-07-30T06:21:03.231Z,100524.69
2023-07-30T06:22:04.969Z,100525.84
2023-07-30T06:23:07.058Z,100517.00
2023-07-30T06:24:08.664Z,100521.94
2023-07-30T06:25:10.349Z,100529.69
2023-07-30T06:26:12.111Z,100528.88
2023-07-30T06:27:13.958Z,100525.75
2023-07-30T06:28:15.645Z,100528.81
2023-07-30T06:29:18.354Z,100531.66
2023-07-30T06:30:19.974Z,100529.13
2023-07-30T06:31:22.165Z,100529.53
2023-07-30T06:32:23.841Z,100535.81
2023-07-30T06:33:27.218Z,100530.47
2023-07-30T06:34:29.107Z,100533.47
2023-07-30T06:35:30.700Z,100537.38
2023-07-30T06:36:33.002Z,100537.53
2023-07-30T06:37:35.660Z,100545.34
2023-07-30T06:38:38.672Z,100531.94
2023-07-30T06:39:40.434Z,100539.50
2023-07-30T06:40:42.259Z,100531.53
2023-07-30T06:41:43.907Z,100539.41
2023-07-30T06:42:47.023Z,100535.06
2023-07-30T06:43:48.741Z,100541.34
2023-07-30T06:44:50.431Z,100536.13
2023-07-30T06:45:52.215Z,100531.63
2023-07-30T06:46:57.332Z,100535.25
2023-07-30T06:47:59.287Z,100540.47
2023-07-30T06:49:01.993Z,100524.81
2023-07-30T06:50:04.921Z,100533.19
2023-07-30T06:51:08.873Z,100538.16
2023-07-30T06:52:10.479Z,100534.84
2023-07-30T06:53:12.644Z,100541.09
2023-07-30T06:54:14.333Z,100541.09
2023-07-30T06:55:16.548Z,100542.19
2023-07-30T06:56:18.865Z,100541.97
2023-07-30T06:57:20.494Z,100539.78
2023-07-30T06:58:22.281Z,100539.16
2023-07-30T06:59:23.868Z,100538.94
2023-07-30T07:00:25.475Z,100544.19
2023-07-30T07:01:28.194Z,100547.59
2023-07-30T07:02:33.035Z,100538.66
2023-07-30T07:03:34.794Z,100538.56
2023-07-30T07:04:36.951Z,100545.50
2023-07-30T07:05:38.558Z,100539.31
2023-07-30T07:06:40.280Z,100536.75
2023-07-30T07:07:42.203Z,100539.41
2023-07-30T07:08:43.844Z,100536.47
2023-07-30T07:09:45.418Z,100543.47
2023-07-30T07:10:47.112Z,100535.84
2023-07-30T07:11:49.117Z,100532.47
2023-07-30T07:12:51.053Z,100541.19
2023-07-30T07:13:53.798Z,100538.34
2023-07-30T07:14:59.247Z,100539.75
2023-07-30T07:16:00.969Z,100541.59
2023-07-30T07:17:03.345Z,100545.25
2023-07-30T07:18:05.041Z,100537.25
2023-07-30T07:19:07.935Z,100539.72
2023-07-30T07:20:09.925Z,100542.28
2023-07-30T07:21:12.073Z,100542.16
2023-07-30T07:22:13.902Z,100543.75
2023-07-30T07:23:15.553Z,100553.78
2023-07-30T07:24:18.354Z,100546.00
2023-07-30T07:25:22.665Z,100542.06
2023-07-30T07:26:24.444Z,100548.44
2023-07-30T07:27:27.058Z,100545.38
2023-07-30T07:28:28.711Z,100536.50
2023-07-30T07:29:30.407Z,100546.44
2023-07-30T07:30:33.036Z,100545.59
2023-07-30T07:31:36.100Z,100552.72
2023-07-30T07:32:39.924Z,100551.09
2023-07-30T07:33:44.643Z,100552.38
2023-07-30T07:34:50.035Z,100554.31
2023-07-30T07:35:51.946Z,100552.81
2023-07-30T07:36:53.581Z,100554.31
2023-07-30T07:37:55.201Z,100543.22
2023-07-30T07:38:58.096Z,100548.66
2023-07-30T07:39:59.677Z,100548.44
2023-07-30T07:41:03.241Z,100558.16
2023-07-30T07:42:04.999Z,100555.38
2023-07-30T07:43:08.151Z,100557.09
2023-07-30T07:44:09.781Z,100555.28
2023-07-30T07:45:11.933Z,100549.31
2023-07-30T07:46:16.439Z,100551.13
2023-07-30T07:47:18.624Z,100547.19
2023-07-30T07:48:20.488Z,100546.75
2023-07-30T07:49:22.216Z,100551.00
2023-07-30T07:50:23.916Z,100552.94
2023-07-30T07:51:27.259Z,100553.06
2023-07-30T07:52:28.930Z,100554.00
2023-07-30T07:53:30.526Z,100549.94
2023-07-30T07:54:32.809Z,100547.06
2023-07-30T07:55:34.399Z,100550.38
2023-07-30T07:56:35.986Z,100545.91
2023-07-30T07:57:39.012Z,100545.06
2023-07-30T07:58:40.851Z,100545.78
2023-07-30T07:59:45.986Z,100547.94
2023-07-30T08:00:48.551Z,100547.28
2023-07-30T08:01:50.356Z,100547.06
2023-07-30T08:02:52.232Z,100549.53
2023-07-30T08:03:53.974Z,100546.84
2023-07-30T08:04:55.773Z,100547.16
2023-07-30T08:05:58.452Z,100548.47
2023-07-30T08:07:04.230Z,100552.50
2023-07-30T08:08:05.892Z,100548.31
2023-07-30T08:09:08.361Z,100555.25
2023-07-30T08:10:10.341Z,100543.28
2023-07-30T08:11:14.689Z,100537.41
2023-07-30T08:12:16.822Z,100539.00
2023-07-30T08:13:18.591Z,100542.81
2023-07-30T08:14:22.253Z,100549.28
2023-07-30T08:15:24.230Z,100544.72
2023-07-30T08:16:27.058Z,100542.31
2023-07-30T08:17:29.102Z,100540.91
2023-07-30T08:18:30.812Z,100542.88
2023-07-30T08:19:32.943Z,100542.31
2023-07-30T08:20:34.647Z,100539.81
2023-07-30T08:21:37.189Z,100546.41
2023-07-30T08:22:39.028Z,100534.16
2023-07-30T08:23:40.889Z,100548.97
2023-07-30T08:24:42.912Z,100544.91
2023-07-30T08:25:44.776Z,100536.25
2023-07-30T08:26:47.959Z,100549.75
2023-07-30T08:27:49.583Z,100543.56
2023-07-30T08:28:52.118Z,100540.66
2023-07-30T08:29:53.758Z,100532.63
2023-07-30T08:31:05.190Z,100536.25
2023-07-30T08:32:07.254Z,100537.47
2023-07-30T08:33:08.896Z,100536.63
2023-07-30T08:34:10.547Z,100538.34
2023-07-30T08:35:12.355Z,100536.38
2023-07-30T08:36:14.096Z,100537.13
2023-07-30T08:37:16.073Z,100528.91
2023-07-30T08:38:18.581Z,100531.03
2023-07-30T08:39:20.475Z,100532.50
2023-07-30T08:40:24.708Z,100540.50
2023-07-30T08:41:27.479Z,100534.06
2023-07-30T08:42:29.238Z,100530.94
2023-07-30T08:43:32.372Z,100527.78
2023-07-30T08:44:34.082Z,100527.44
2023-07-30T08:45:38.281Z,100529.50
2023-07-30T08:46:39.980Z,100524.16
2023-07-30T08:47:42.683Z,100525.28
2023-07-30T08:48:46.490Z,100531.88
2023-07-30T08:49:49.292Z,100528.44
2023-07-30T08:50:52.170Z,100527.00
2023-07-30T08:51:55.231Z,100521.31
2023-07-30T08:53:02.337Z,100523.84
2023-07-30T08:54:04.622Z,100521.78
2023-07-30T08:55:08.054Z,100517.44
2023-07-30T08:56:10.443Z,100525.78
2023-07-30T08:57:13.303Z,100525.66
2023-07-30T08:58:19.023Z,100523.84
2023-07-30T08:59:23.261Z,100531.13
2023-07-30T09:00:30.804Z,100526.78
2023-07-30T09:01:38.982Z,100531.13
2023-07-30T09:02:48.279Z,100528.97
2023-07-30T09:03:52.020Z,100527.53
2023-07-30T09:05:01.899Z,100529.47
2023-07-30T09:06:03.714Z,100525.47
2023-07-30T09:07:09.191Z,100525.94
2023-07-30T09:08:12.070Z,100530.66
2023-07-30T09:09:14.447Z,100527.03
2023-07-30T09:10:17.383Z,100532.25
2023-07-30T09:11:19.271Z,100532.75
2023-07-30T09:12:21.002Z,100530.78
2023-07-30T09:13:27.253Z,100535.53
2023-07-30T09:14:28.922Z,100538.53
2023-07-30T09:15:34.870Z,100528.44
2023-07-30T09:16:37.006Z,100540.06
2023-07-30T09:17:42.499Z,100528.66
2023-07-30T09:18:48.707Z,100537.16
2023-07-30T09:19:52.820Z,100531.41
2023-07-30T09:20:54.568Z,100541.59
2023-07-30T09:21:56.580Z,100530.91
2023-07-30T09:23:00.286Z,100537.25
2023-07-30T09:24:08.458Z,100535.81
2023-07-30T09:25:10.733Z,100545.91
2023-07-30T09:26:14.025Z,100544.44
2023-07-30T09:27:15.646Z,100541.66
2023-07-30T09:28:20.220Z,100538.53
2023-07-30T09:29:23.491Z,100544.72
2023-07-30T09:30:26.978Z,100545.94
2023-07-30T09:31:28.820Z,100535.00
2023-07-30T09:32:33.080Z,100547.69
2023-07-30T09:33:36.345Z,100542.69
2023-07-30T09:34:45.631Z,100539.53
2023-07-30T09:35:48.039Z,100546.00
2023-07-30T09:36:53.041Z,100540.41
2023-07-30T09:38:02.374Z,100544.66
2023-07-30T09:39:04.994Z,100533.56
2023-07-30T09:40:08.595Z,100541.34
2023-07-30T09:41:13.543Z,100535.88
2023-07-30T09:42:15.549Z,100541.97
2023-07-30T09:43:18.540Z,100541.00
2023-07-30T09:44:23.199Z,100547.66
2023-07-30T09:45:33.999Z,100538.94
2023-07-30T09:46:45.607Z,100554.84
2023-07-30T09:47:52.993Z,100544.78
2023-07-30T09:48:54.669Z,100543.19
2023-07-30T09:49:56.816Z,100534.53
2023-07-30T09:51:44.663Z,100537.59
2023-07-30T09:52:47.855Z,100538.31
2023-07-30T09:53:59.275Z,100548.16
2023-07-30T09:55:04.365Z,100546.47
2023-07-30T09:56:09.879Z,100549.00
2023-07-30T09:57:12.439Z,100536.38
2023-07-30T09:58:14.402Z,100540.50
2023-07-30T09:59:19.238Z,100548.03
2023-07-30T10:00:24.513Z,100542.06
2023-07-30T10:01:29.306Z,100550.09
2023-07-30T10:02:33.946Z,100542.78
2023-07-30T10:03:37.307Z,100541.69
2023-07-30T10:04:45.173Z,100544.50
2023-07-30T10:05:49.065Z,100543.88
2023-07-30T10:06:59.723Z,100548.91
2023-07-30T10:08:09.873Z,100547.56
2023-07-30T10:09:23.888Z,100551.69
2023-07-30T10:10:37.202Z,100541.72
2023-07-30T10:11:40.995Z,100549.03
2023-07-30T10:12:52.579Z,100550.00
2023-07-30T10:13:55.684Z,100551.78
2023-07-30T10:14:57.903Z,100548.41
2023-07-30T10:16:00.291Z,100552.19
2023-07-30T10:17:07.930Z,100548.16
2023-07-30T10:18:09.736Z,100556.84
2023-07-30T10:19:12.083Z,100553.66
2023-07-30T10:20:30.112Z,100556.09
2023-07-30T10:21:34.022Z,100555.47
2023-07-30T10:22:44.758Z,100561.69
2023-07-30T10:23:59.878Z,100561.06
2023-07-30T10:25:04.982Z,100557.81
2023-07-30T10:26:13.576Z,100562.75
2023-07-30T10:27:25.882Z,100564.78
2023-07-30T10:28:35.425Z,100559.69
2023-07-30T10:29:39.380Z,100561.28
2023-07-30T10:30:41.380Z,100574.41
2023-07-30T10:32:08.138Z,100573.56
2023-07-30T10:33:10.783Z,100569.31
2023-07-30T10:34:22.158Z,100575.38
2023-07-30T10:35:55.039Z,100568.84
2023-07-30T10:36:57.296Z,100566.16
2023-07-30T10:38:03.317Z,100569.59
2023-07-30T10:39:23.287Z,100578.06
2023-07-30T10:40:29.635Z,100574.94
2023-07-30T10:41:35.997Z,100582.00
2023-07-30T10:42:40.526Z,100578.06
2023-07-30T10:43:54.822Z,100585.00
2023-07-30T10:44:59.383Z,100577.72
2023-07-30T10:46:03.109Z,100587.56
2023-07-30T10:47:05.369Z,100599.97
2023-07-30T10:48:10.253Z,100587.56
2023-07-30T10:49:14.479Z,100589.72
2023-07-30T10:50:18.061Z,100595.91
2023-07-30T10:51:22.223Z,100590.94
2023-07-30T10:52:29.497Z,100587.50
2023-07-30T10:53:37.243Z,100594.56
2023-07-30T10:54:39.425Z,100589.09
2023-07-30T10:55:41.496Z,100595.28
2023-07-30T10:56:46.969Z,100593.38
2023-07-30T10:58:09.667Z,100595.91
2023-07-30T10:59:16.268Z,100600.50
2023-07-30T11:00:18.683Z,100600.50
2023-07-30T11:01:20.570Z,100598.59
2023-07-30T11:02:23.438Z,100595.06
2023-07-30T11:03:29.262Z,100597.50
2023-07-30T11:04:35.968Z,100589.97
2023-07-30T11:05:42.018Z,100588.66
2023-07-30T11:06:51.958Z,100589.28
2023-07-30T11:07:53.676Z,100585.38
2023-07-30T11:08:55.464Z,100587.09
2023-07-30T11:10:03.048Z,100586.97
2023-07-30T11:11:06.794Z,100586.34
2023-07-30T11:12:10.070Z,100589.28
2023-07-30T11:13:13.144Z,100586.47
2023-07-30T11:14:59.139Z,100590.84
2023-07-30T11:16:00.840Z,100580.53
2023-07-30T11:17:03.736Z,100586.72
2023-07-30T11:18:08.161Z,100579.66
2023-07-30T11:19:10.158Z,100583.66
2023-07-30T11:20:29.062Z,100581.13
2023-07-30T11:21:30.666Z,100576.63
2023-07-30T11:22:38.591Z,100572.13
2023-07-30T11:23:43.404Z,100580.16
2023-07-30T11:24:45.417Z,100577.34
2023-07-30T11:25:53.479Z,100577.72
2023-07-30T11:27:02.968Z,100577.81
2023-07-30T11:28:04.857Z,100580.59
2023-07-30T11:29:22.617Z,100576.34
2023-07-30T11:30:24.286Z,100568.34
2023-07-30T11:31:28.303Z,100584.03
2023-07-30T11:32:31.505Z,100577.47
2023-07-30T11:33:36.609Z,100574.81
2023-07-30T11:34:41.494Z,100580.53
2023-07-30T11:35:46.561Z,100569.34
2023-07-30T11:36:53.364Z,100571.28
2023-07-30T11:37:55.107Z,100566.06
2023-07-30T11:38:58.306Z,100570.66
2023-07-30T11:40:00.959Z,100566.03
2023-07-30T11:41:06.989Z,100570.25
2023-07-30T11:42:22.141Z,100573.50
2023-07-30T11:43:24.924Z,100569.41
2023-07-30T11:44:50.617Z,100568.28
2023-07-30T11:46:15.720Z,100564.91
2023-07-30T11:47:33.414Z,100573.53
2023-07-30T11:48:37.194Z,100568.91
2023-07-30T11:50:57.220Z,100571.06
2023-07-30T11:52:13.418Z,100570.56
2023-07-30T11:53:15.865Z,100570.44
2023-07-30T11:54:24.374Z,100571.50
2023-07-30T11:55:39.419Z,100562.69
2023-07-30T11:56:42.308Z,100560.78
2023-07-30T11:57:44.004Z,100555.91
2023-07-30T11:58:47.320Z,100555.06
2023-07-30T11:59:49.204Z,100561.75
2023-07-30T12:00:50.929Z,100551.34
2023-07-30T12:01:53.616Z,100565.22
2023-07-30T12:02:55.463Z,100552.47
2023-07-30T12:04:00.584Z,100553.78
2023-07-30T12:05:12.297Z,100552.28